createdAt,value
2023-11-28T00:01:22.438Z,100.00
2023-11-28T00:03:48.849Z,100.00
2023-11-28T00:06:17.019Z,100.00
2023-11-28T00:08:43.418Z,100.00
2023-11-28T00:11:09.882Z,100.00
2023-11-28T00:13:36.525Z,100.00
2023-11-28T00:16:05.992Z,100.00
2023-11-28T00:18:34.746Z,100.00
2023-11-28T00:21:01.311Z,100.00
2023-11-28T00:23:27.789Z,100.00
2023-11-28T00:25:54.335Z,100.00
2023-11-28T00:28:20.749Z,100.00
2023-11-28T00:30:47.200Z,100.00
2023-11-28T00:33:13.690Z,100.00
2023-11-28T00:35:40.070Z,100.00
2023-11-28T00:38:07.069Z,100.00
2023-11-28T00:40:33.917Z,100.00
2023-11-28T00:43:00.969Z,100.00
2023-11-28T00:45:27.714Z,100.00
2023-11-28T00:47:56.826Z,100.00
2023-11-28T00:50:23.441Z,100.00
2023-11-28T00:52:50.327Z,100.00
2023-11-28T00:55:17.523Z,100.00
2023-11-28T00:57:45.063Z,100.00
2023-11-28T01:00:12.343Z,100.00
2023-11-28T01:02:39.113Z,100.00
2023-11-28T01:05:06.235Z,100.00
2023-11-28T01:07:32.818Z,100.00
2023-11-28T01:09:59.195Z,100.00
2023-11-28T01:12:25.607Z,100.00
2023-11-28T01:14:52.039Z,100.00
2023-11-28T01:17:18.615Z,100.00
2023-11-28T01:19:45.196Z,100.00
2023-11-28T01:22:11.832Z,100.00
2023-11-28T01:24:39.060Z,100.00
2023-11-28T01:27:05.886Z,100.00
2023-11-28T01:29:32.423Z,100.00
2023-11-28T01:31:58.892Z,100.00
2023-11-28T01:34:25.390Z,100.00
2023-11-28T01:36:52.108Z,100.00
2023-11-28T01:39:18.826Z,100.00
2023-11-28T01:41:48.798Z,100.00
2023-11-28T01:44:16.329Z,100.00
2023-11-28T01:46:43.382Z,100.00
2023-11-28T01:49:10.394Z,100.00
2023-11-28T01:51:37.997Z,100.00
2023-11-28T01:54:06.456Z,100.00
2023-11-28T01:56:37.533Z,100.00
2023-11-28T01:59:05.860Z,100.00
2023-11-28T02:01:32.798Z,100.00
2023-11-28T02:03:59.325Z,100.00
2023-11-28T02:06:25.907Z,100.00
2023-11-28T02:08:52.535Z,100.00
2023-11-28T02:11:18.953Z,100.00
2023-11-28T02:13:45.356Z,100.00
2023-11-28T02:16:16.834Z,100.00
2023-11-28T02:18:44.372Z,100.00
2023-11-28T02:21:11.921Z,100.00
2023-11-28T02:23:38.757Z,100.00
2023-11-28T02:26:14.096Z,100.00
2023-11-28T02:28:40.593Z,100.00
2023-11-28T02:31:07.201Z,100.00
2023-11-28T02:33:33.660Z,100.00
2023-11-28T02:36:00.096Z,100.00
2023-11-28T02:38:26.515Z,100.00
2023-11-28T02:40:52.961Z,100.00
2023-11-28T02:43:19.351Z,100.00
2023-11-28T02:45:45.972Z,100.00
2023-11-28T02:48:12.977Z,100.00
2023-11-28T02:50:39.701Z,100.00
2023-11-28T02:53:06.346Z,100.00
2023-11-28T02:55:32.833Z,100.00
2023-11-28T02:58:01.956Z,100.00
2023-11-28T03:00:28.657Z,100.00
2023-11-28T03:02:55.289Z,100.00
2023-11-28T03:05:21.888Z,100.00
2023-11-28T03:07:48.356Z,100.00
2023-11-28T03:10:14.768Z,100.00
2023-11-28T03:12:41.306Z,100.00
2023-11-28T03:15:08.050Z,100.00
2023-11-28T03:17:34.505Z,100.00
2023-11-28T03:20:01.044Z,100.00
2023-11-28T03:22:27.527Z,100.00
2023-11-28T03:24:53.999Z,100.00
2023-11-28T03:27:20.455Z,100.00
2023-11-28T03:29:46.833Z,100.00
2023-11-28T03:32:13.330Z,100.00
2023-11-28T03:34:40.696Z,100.00
2023-11-28T03:37:08.108Z,100.00
2023-11-28T03:39:34.585Z,100.00
2023-11-28T03:42:00.977Z,100.00
2023-11-28T03:44:27.468Z,100.00
2023-11-28T03:46:53.956Z,100.00
2023-11-28T03:49:20.389Z,100.00
2023-11-28T03:51:46.779Z,100.00
2023-11-28T03:54:13.164Z,100.00
2023-11-28T03:56:43.003Z,100.00
2023-11-28T03:59:09.504Z,100.00
2023-11-28T04:01:36.217Z,100.00
2023-11-28T04:04:03.084Z,100.00
2023-11-28T04:06:29.594Z,100.00
2023-11-28T04:08:56.113Z,100.00
2023-11-28T04:11:22.494Z,100.00
2023-11-28T04:13:49.146Z,100.00
2023-11-28T04:16:19.345Z,100.00
2023-11-28T04:18:47.706Z,100.00
2023-11-28T04:21:17.715Z,100.00
2023-11-28T04:23:44.631Z,100.00
2023-11-28T04:26:11.220Z,100.00
2023-11-28T04:28:40.173Z,100.00
2023-11-28T04:31:06.933Z,100.00
2023-11-28T04:33:33.403Z,100.00
2023-11-28T04:35:59.949Z,100.00
2023-11-28T04:38:26.387Z,100.00
2023-11-28T04:40:52.906Z,100.00
2023-11-28T04:43:19.336Z,100.00
2023-11-28T04:45:46.011Z,100.00
2023-11-28T04:48:12.395Z,100.00
2023-11-28T04:50:38.957Z,100.00
2023-11-28T04:53:05.390Z,100.00
2023-11-28T04:55:31.883Z,100.00
2023-11-28T04:57:58.271Z,100.00
2023-11-28T05:00:24.783Z,100.00
2023-11-28T05:02:51.434Z,100.00
2023-11-28T05:05:18.171Z,100.00
2023-11-28T05:07:44.638Z,100.00
2023-11-28T05:10:11.126Z,100.00
2023-11-28T05:12:37.624Z,100.00
2023-11-28T05:15:05.072Z,100.00
2023-11-28T05:17:31.675Z,100.00
2023-11-28T05:19:58.131Z,100.00
2023-11-28T05:22:24.518Z,100.00
2023-11-28T05:24:50.930Z,100.00
2023-11-28T05:27:17.345Z,100.00
2023-11-28T05:29:43.759Z,100.00
2023-11-28T05:32:10.260Z,100.00
2023-11-28T05:34:36.781Z,100.00
2023-11-28T05:37:03.243Z,100.00
2023-11-28T05:39:29.698Z,100.00
2023-11-28T05:41:56.296Z,100.00
2023-11-28T05:44:22.716Z,100.00
2023-11-28T05:46:49.562Z,100.00
2023-11-28T05:49:16.231Z,100.00
2023-11-28T05:51:42.939Z,100.00
2023-11-28T05:54:09.996Z,100.00
2023-11-28T05:56:37.836Z,100.00
2023-11-28T05:59:04.342Z,100.00
2023-11-28T06:01:30.866Z,100.00
2023-11-28T06:03:57.419Z,100.00
2023-11-28T06:06:23.802Z,100.00
2023-11-28T06:08:50.269Z,100.00
2023-11-28T06:11:17.037Z,100.00
2023-11-28T06:13:43.595Z,100.00
2023-11-28T06:16:10.434Z,100.00
2023-11-28T06:18:37.147Z,100.00
2023-11-28T06:21:06.881Z,100.00
2023-11-28T06:23:33.306Z,100.00
2023-11-28T06:25:59.774Z,100.00
2023-11-28T06:28:26.154Z,100.00
2023-11-28T06:30:52.638Z,100.00
2023-11-28T06:33:19.087Z,100.00
2023-11-28T06:35:45.648Z,100.00
2023-11-28T06:38:12.076Z,100.00
2023-11-28T06:40:39.434Z,100.00
2023-11-28T06:43:05.848Z,100.00
2023-11-28T06:45:32.308Z,100.00
2023-11-28T06:47:58.820Z,100.00
2023-11-28T06:50:25.239Z,100.00
2023-11-28T06:52:51.657Z,100.00
2023-11-28T06:55:22.201Z,100.00
2023-11-28T06:57:49.394Z,100.00
2023-11-28T07:00:16.613Z,100.00
2023-11-28T07:02:43.137Z,100.00
2023-11-28T07:05:09.781Z,100.00
2023-11-28T07:07:36.244Z,100.00
2023-11-28T07:10:05.029Z,100.00
2023-11-28T07:12:31.411Z,100.00
2023-11-28T07:14:57.745Z,100.00
2023-11-28T07:17:24.371Z,100.00
2023-11-28T07:19:51.999Z,100.00
2023-11-28T07:22:18.456Z,100.00
2023-11-28T07:24:44.835Z,100.00
2023-11-28T07:27:11.293Z,100.00
2023-11-28T07:29:37.688Z,100.00
2023-11-28T07:32:04.532Z,100.00
2023-11-28T07:34:31.031Z,100.00
2023-11-28T07:36:57.450Z,100.00
2023-11-28T07:39:23.796Z,100.00
2023-11-28T07:41:50.125Z,100.00
2023-11-28T07:44:16.575Z,100.00
2023-11-28T07:46:43.009Z,100.00
2023-11-28T07:49:09.438Z,100.00
2023-11-28T07:51:37.075Z,100.00
2023-11-28T07:54:03.578Z,100.00
2023-11-28T07:56:30.115Z,100.00
2023-11-28T07:58:56.669Z,100.00
2023-11-28T08:01:23.120Z,100.00
2023-11-28T08:03:49.891Z,100.00
2023-11-28T08:06:18.678Z,100.00
2023-11-28T08:08:45.134Z,100.00
2023-11-28T08:11:11.586Z,100.00
2023-11-28T08:13:38.126Z,100.00
2023-11-28T08:16:04.990Z,100.00
2023-11-28T08:18:36.022Z,100.00
2023-11-28T08:21:08.539Z,100.00
2023-11-28T08:23:35.215Z,100.00
2023-11-28T08:26:01.783Z,100.00
2023-11-28T08:28:28.580Z,100.00
2023-11-28T08:30:54.987Z,100.00
2023-11-28T08:33:21.580Z,100.00
2023-11-28T08:35:48.037Z,100.00
2023-11-28T08:38:14.641Z,100.00
2023-11-28T08:40:41.124Z,100.00
2023-11-28T08:43:07.607Z,100.00
2023-11-28T08:45:34.049Z,100.00
2023-11-28T08:48:02.644Z,100.00
2023-11-28T08:50:29.090Z,100.00
2023-11-28T08:52:55.725Z,99.33
2023-11-28T08:55:22.137Z,96.39
2023-11-28T08:57:48.552Z,84.81
2023-11-28T09:00:15.451Z,77.92
2023-11-28T09:02:41.938Z,72.67
2023-11-28T09:05:08.629Z,66.78
2023-11-28T09:07:35.047Z,62.72
2023-11-28T09:10:01.431Z,59.20
2023-11-28T09:12:27.870Z,58.02
2023-11-28T09:14:56.588Z,54.84
2023-11-28T09:17:23.847Z,54.38
2023-11-28T09:19:50.540Z,53.91
2023-11-28T09:22:17.106Z,53.54
2023-11-28T09:24:43.814Z,51.14
2023-11-28T09:27:10.517Z,48.14
2023-11-28T09:29:37.076Z,46.80
2023-11-28T09:32:03.727Z,46.12
2023-11-28T09:34:32.293Z,45.16
2023-11-28T09:36:58.667Z,46.64
2023-11-28T09:39:25.151Z,44.43
2023-11-28T09:41:51.900Z,42.47
2023-11-28T09:44:18.510Z,43.21
2023-11-28T09:46:50.522Z,39.48
2023-11-28T09:49:22.149Z,39.66
2023-11-28T09:51:50.185Z,39.08
2023-11-28T09:54:17.247Z,37.90
2023-11-28T09:56:48.244Z,37.35
2023-11-28T09:59:16.355Z,36.66
2023-11-28T10:01:46.897Z,35.86
2023-11-28T10:04:13.444Z,36.33
2023-11-28T10:06:43.733Z,35.87
2023-11-28T10:09:11.602Z,35.55
2023-11-28T10:11:38.934Z,36.22
2023-11-28T10:14:05.738Z,34.99
2023-11-28T10:16:42.287Z,33.74
2023-11-28T10:19:08.744Z,33.57
2023-11-28T10:21:35.376Z,33.34
2023-11-28T10:24:02.508Z,32.28
2023-11-28T10:26:29.017Z,31.88
2023-11-28T10:28:55.478Z,33.76
2023-11-28T10:31:21.902Z,34.08
2023-11-28T10:33:48.471Z,33.62
2023-11-28T10:36:17.759Z,32.39
2023-11-28T10:38:44.443Z,31.21
2023-11-28T10:41:10.836Z,31.34
2023-11-28T10:43:37.308Z,32.06
2023-11-28T10:46:06.203Z,31.54
2023-11-28T10:48:32.704Z,33.42
2023-11-28T10:51:00.299Z,32.66
2023-11-28T10:53:29.973Z,31.58
2023-11-28T10:56:01.296Z,31.66
2023-11-28T10:58:29.573Z,31.54
2023-11-28T11:00:57.116Z,32.36
2023-11-28T11:03:24.858Z,33.24
2023-11-28T11:05:51.655Z,33.16
2023-11-28T11:08:19.683Z,36.03
2023-11-28T11:10:46.730Z,36.93
2023-11-28T11:13:50.783Z,38.28
2023-11-28T11:16:39.294Z,40.37
2023-11-28T11:19:07.314Z,38.51
2023-11-28T11:21:56.245Z,36.29
2023-11-28T11:24:22.732Z,35.27
2023-11-28T11:26:49.904Z,33.47
2023-11-28T11:29:25.275Z,33.10
2023-11-28T11:31:53.099Z,32.19
2023-11-28T11:34:41.588Z,31.78
2023-11-28T11:37:09.907Z,31.27
2023-11-28T11:39:38.097Z,30.12
2023-11-28T11:42:08.310Z,29.61
2023-11-28T11:44:35.694Z,29.48
2023-11-28T11:47:17.241Z,28.89
2023-11-28T11:49:45.407Z,30.35
2023-11-28T11:52:13.707Z,31.63
2023-11-28T11:54:43.879Z,30.16
2023-11-28T11:57:10.850Z,29.55
2023-11-28T11:59:38.024Z,28.78
2023-11-28T12:02:04.828Z,29.00
2023-11-28T12:04:32.898Z,28.73
2023-11-28T12:07:03.003Z,28.15
2023-11-28T12:09:29.585Z,28.68
2023-11-28T12:11:56.242Z,28.77
2023-11-28T12:14:22.949Z,29.66
2023-11-28T12:16:49.580Z,27.58
2023-11-28T12:19:16.072Z,28.02
2023-11-28T12:21:42.903Z,28.85
2023-11-28T12:24:09.612Z,28.55
2023-11-28T12:26:36.381Z,27.77
2023-11-28T12:29:02.973Z,28.33
2023-11-28T12:31:30.030Z,27.75
2023-11-28T12:33:56.543Z,27.78
2023-11-28T12:36:23.257Z,28.18
2023-11-28T12:38:51.978Z,29.81
2023-11-28T12:41:20.342Z,31.92
2023-11-28T12:43:53.039Z,34.85
2023-11-28T12:46:19.630Z,37.70
2023-11-28T12:48:46.025Z,38.18
2023-11-28T12:51:12.409Z,36.02
2023-11-28T12:53:38.814Z,32.82
2023-11-28T12:56:08.131Z,30.20
2023-11-28T12:58:37.110Z,29.46
2023-11-28T13:01:03.676Z,29.51
2023-11-28T13:03:30.107Z,28.95
2023-11-28T13:05:56.627Z,28.95
2023-11-28T13:08:23.086Z,29.29
2023-11-28T13:10:49.610Z,29.98
2023-11-28T13:13:18.159Z,30.45
2023-11-28T13:15:45.144Z,30.57
2023-11-28T13:18:11.739Z,31.11
2023-11-28T13:20:38.325Z,31.42
2023-11-28T13:23:04.911Z,31.17
2023-11-28T13:25:31.295Z,32.57
2023-11-28T13:27:57.743Z,33.55
2023-11-28T13:30:24.461Z,32.09
2023-11-28T13:32:50.901Z,31.73
2023-11-28T13:35:18.387Z,30.98
2023-11-28T13:37:46.505Z,31.05
2023-11-28T13:40:13.164Z,31.15
2023-11-28T13:42:39.654Z,30.60
2023-11-28T13:45:08.152Z,30.21
2023-11-28T13:47:34.571Z,30.05
2023-11-28T13:50:02.099Z,30.00
2023-11-28T13:52:28.556Z,30.96
2023-11-28T13:54:55.016Z,33.56
2023-11-28T13:57:22.754Z,36.49
2023-11-28T13:59:49.528Z,39.56
2023-11-28T14:02:16.039Z,43.32
2023-11-28T14:04:42.982Z,45.12
2023-11-28T14:07:09.496Z,48.28
2023-11-28T14:09:35.914Z,49.40
2023-11-28T14:12:02.344Z,51.01
2023-11-28T14:14:31.119Z,51.69
2023-11-28T14:17:01.234Z,53.13
2023-11-28T14:19:27.748Z,53.59
2023-11-28T14:21:54.487Z,55.11
2023-11-28T14:24:20.918Z,53.75
2023-11-28T14:26:47.329Z,53.23
2023-11-28T14:29:13.877Z,53.01
2023-11-28T14:31:40.478Z,54.50
2023-11-28T14:34:07.174Z,56.07
2023-11-28T14:36:34.811Z,58.52
2023-11-28T14:39:01.280Z,61.80
2023-11-28T14:41:27.732Z,63.93
2023-11-28T14:43:54.190Z,65.20
2023-11-28T14:46:20.720Z,66.54
2023-11-28T14:48:47.217Z,67.03
2023-11-28T14:51:18.295Z,68.51
2023-11-28T14:53:45.149Z,70.21
2023-11-28T14:56:11.802Z,71.35
2023-11-28T14:58:38.207Z,71.70
2023-11-28T15:01:05.093Z,72.33
2023-11-28T15:03:31.682Z,73.73
2023-11-28T15:05:58.562Z,74.81
2023-11-28T15:08:30.967Z,76.87
2023-11-28T15:10:59.060Z,78.81
2023-11-28T15:13:25.624Z,79.78
2023-11-28T15:15:51.985Z,79.17
2023-11-28T15:18:18.641Z,79.99
2023-11-28T15:20:45.302Z,80.36
2023-11-28T15:23:12.325Z,81.30
2023-11-28T15:25:38.957Z,81.30
2023-11-28T15:28:05.327Z,82.45
2023-11-28T15:30:31.745Z,83.38
2023-11-28T15:32:58.431Z,83.96
2023-11-28T15:35:25.029Z,84.81
2023-11-28T15:37:55.579Z,83.87
2023-11-28T15:40:27.519Z,84.73
2023-11-28T15:42:54.202Z,86.40
2023-11-28T15:45:20.609Z,87.62
2023-11-28T15:47:47.652Z,89.32
2023-11-28T15:50:14.243Z,90.74
2023-11-28T15:52:40.785Z,90.97
2023-11-28T15:55:07.887Z,91.09
2023-11-28T15:57:34.285Z,92.21
2023-11-28T16:00:07.384Z,92.14
2023-11-28T16:02:34.432Z,91.59
2023-11-28T16:05:01.650Z,91.13
2023-11-28T16:07:28.642Z,91.04
2023-11-28T16:09:55.168Z,91.38
2023-11-28T16:12:21.882Z,91.05
2023-11-28T16:14:50.015Z,91.72
2023-11-28T16:17:17.236Z,90.71
2023-11-28T16:19:44.486Z,91.17
2023-11-28T16:22:10.885Z,91.15
2023-11-28T16:24:37.275Z,91.25
2023-11-28T16:27:03.964Z,90.69
2023-11-28T16:29:30.351Z,90.92
2023-11-28T16:31:56.814Z,90.95
2023-11-28T16:34:23.277Z,90.59
2023-11-28T16:36:49.753Z,91.56
2023-11-28T16:39:16.214Z,91.85
2023-11-28T16:41:42.766Z,92.09
2023-11-28T16:44:09.513Z,92.02
2023-11-28T16:46:36.057Z,91.70
2023-11-28T16:49:02.610Z,91.22
2023-11-28T16:51:29.252Z,92.16
2023-11-28T16:53:55.655Z,93.31
2023-11-28T16:56:23.142Z,92.96
2023-11-28T16:58:49.533Z,92.31
2023-11-28T17:01:16.174Z,93.06
2023-11-28T17:03:42.777Z,92.58
2023-11-28T17:06:10.171Z,94.00
2023-11-28T17:08:36.894Z,94.98
2023-11-28T17:11:03.387Z,95.13
2023-11-28T17:13:29.973Z,95.64
2023-11-28T17:15:56.437Z,96.26
2023-11-28T17:18:23.291Z,96.14
2023-11-28T17:20:50.290Z,95.77
2023-11-28T17:23:16.772Z,97.22
2023-11-28T17:25:43.423Z,95.82
2023-11-28T17:28:10.096Z,96.45
2023-11-28T17:30:36.610Z,95.96
2023-11-28T17:33:03.256Z,97.13
2023-11-28T17:35:29.805Z,97.77
2023-11-28T17:37:56.211Z,98.17
2023-11-28T17:40:23.304Z,98.44
2023-11-28T17:42:50.474Z,98.64
2023-11-28T17:45:17.027Z,98.71
2023-11-28T17:47:43.573Z,99.98
2023-11-28T17:50:10.529Z,100.00
2023-11-28T17:52:37.300Z,100.00
2023-11-28T17:55:04.305Z,100.00
2023-11-28T17:57:30.730Z,100.00
2023-11-28T17:59:57.120Z,99.83
2023-11-28T18:02:23.647Z,100.00
2023-11-28T18:04:51.242Z,100.00
2023-11-28T18:07:18.710Z,100.00
2023-11-28T18:09:45.405Z,100.00
2023-11-28T18:12:12.059Z,100.00
2023-11-28T18:14:39.468Z,100.00
2023-11-28T18:17:07.073Z,100.00
2023-11-28T18:19:33.748Z,100.00
2023-11-28T18:22:00.526Z,100.00
2023-11-28T18:24:27.086Z,100.00
2023-11-28T18:26:53.543Z,100.00
2023-11-28T18:29:21.175Z,100.00
2023-11-28T18:31:47.777Z,100.00
2023-11-28T18:34:15.142Z,100.00
2023-11-28T18:36:41.850Z,100.00
2023-11-28T18:39:08.531Z,100.00
2023-11-28T18:41:39.088Z,100.00
2023-11-28T18:44:07.427Z,100.00
2023-11-28T18:46:34.757Z,100.00
2023-11-28T18:49:01.322Z,100.00
2023-11-28T18:51:28.895Z,100.00
2023-11-28T18:53:55.387Z,100.00
2023-11-28T18:56:23.499Z,100.00
2023-11-28T18:58:50.836Z,100.00
2023-11-28T19:01:20.798Z,100.00
2023-11-28T19:03:48.522Z,100.00
2023-11-28T19:06:15.722Z,100.00
2023-11-28T19:08:43.438Z,100.00
2023-11-28T19:11:09.899Z,100.00
2023-11-28T19:13:36.317Z,100.00
2023-11-28T19:16:02.821Z,100.00
2023-11-28T19:18:29.460Z,100.00
2023-11-28T19:20:56.154Z,100.00
2023-11-28T19:23:22.613Z,100.00
2023-11-28T19:25:48.990Z,100.00
2023-11-28T19:28:15.458Z,100.00
2023-11-28T19:30:41.926Z,100.00
2023-11-28T19:33:08.297Z,100.00
2023-11-28T19:35:35.089Z,100.00
2023-11-28T19:38:01.605Z,100.00
2023-11-28T19:40:28.048Z,100.00
2023-11-28T19:42:54.409Z,100.00
2023-11-28T19:45:21.201Z,100.00
2023-11-28T19:47:47.915Z,100.00
2023-11-28T19:50:14.565Z,100.00
2023-11-28T19:52:41.144Z,100.00
2023-11-28T19:55:07.722Z,100.00
2023-11-28T19:57:34.627Z,100.00
2023-11-28T20:00:01.108Z,100.00
2023-11-28T20:02:27.604Z,100.00
2023-11-28T20:04:55.025Z,100.00
2023-11-28T20:07:21.504Z,100.00
2023-11-28T20:09:47.918Z,100.00
2023-11-28T20:12:14.433Z,100.00
2023-11-28T20:14:43.597Z,100.00
2023-11-28T20:17:10.047Z,100.00
2023-11-28T20:19:36.482Z,100.00
2023-11-28T20:22:03.169Z,100.00
2023-11-28T20:24:29.587Z,100.00
2023-11-28T20:26:56.010Z,100.00
2023-11-28T20:29:22.520Z,100.00
2023-11-28T20:31:48.891Z,100.00
2023-11-28T20:34:15.367Z,100.00
2023-11-28T20:36:41.758Z,100.00
2023-11-28T20:39:08.259Z,100.00
2023-11-28T20:41:34.817Z,100.00
2023-11-28T20:44:01.296Z,100.00
2023-11-28T20:46:27.754Z,100.00
2023-11-28T20:48:54.304Z,100.00
2023-11-28T20:51:21.233Z,100.00
2023-11-28T20:53:47.666Z,100.00
2023-11-28T20:56:14.457Z,100.00
2023-11-28T20:58:40.846Z,100.00
2023-11-28T21:01:07.293Z,100.00
2023-11-28T21:03:33.683Z,100.00
2023-11-28T21:06:00.386Z,100.00
2023-11-28T21:08:29.605Z,100.00
2023-11-28T21:10:55.984Z,100.00
2023-11-28T21:13:22.593Z,100.00
2023-11-28T21:15:49.030Z,100.00
2023-11-28T21:18:15.647Z,100.00
2023-11-28T21:20:44.526Z,100.00
2023-11-28T21:23:10.941Z,100.00
2023-11-28T21:25:38.034Z,100.00
2023-11-28T21:28:04.673Z,100.00
2023-11-28T21:30:31.237Z,100.00
2023-11-28T21:32:57.682Z,100.00
2023-11-28T21:35:25.485Z,100.00
2023-11-28T21:37:52.089Z,100.00
2023-11-28T21:40:19.075Z,100.00
2023-11-28T21:42:45.583Z,100.00
2023-11-28T21:45:11.987Z,100.00
2023-11-28T21:47:38.528Z,100.00
2023-11-28T21:50:10.016Z,100.00
2023-11-28T21:52:38.025Z,100.00
2023-11-28T21:55:05.108Z,100.00
2023-11-28T21:57:31.465Z,100.00
2023-11-28T21:59:58.014Z,100.00
2023-11-28T22:02:24.528Z,100.00
2023-11-28T22:04:51.035Z,100.00
2023-11-28T22:07:17.470Z,100.00
2023-11-28T22:09:43.815Z,100.00
2023-11-28T22:12:10.206Z,100.00
2023-11-28T22:14:36.628Z,100.00
2023-11-28T22:17:03.295Z,100.00
2023-11-28T22:19:29.686Z,100.00
2023-11-28T22:21:56.034Z,100.00
2023-11-28T22:24:22.416Z,100.00
2023-11-28T22:26:48.808Z,100.00
2023-11-28T22:29:15.671Z,100.00
2023-11-28T22:31:42.272Z,100.00
2023-11-28T22:34:08.948Z,100.00
2023-11-28T22:36:35.547Z,100.00
2023-11-28T22:39:01.936Z,100.00
2023-11-28T22:41:28.350Z,100.00
2023-11-28T22:43:54.829Z,100.00
2023-11-28T22:46:21.196Z,100.00
2023-11-28T22:48:47.605Z,100.00
2023-11-28T22:51:14.269Z,100.00
2023-11-28T22:53:40.662Z,100.00
2023-11-28T22:56:09.068Z,100.00
2023-11-28T22:58:35.489Z,100.00
2023-11-28T23:01:02.014Z,100.00
2023-11-28T23:03:28.555Z,100.00
2023-11-28T23:05:55.060Z,100.00
2023-11-28T23:08:21.537Z,100.00
2023-11-28T23:10:47.882Z,100.00
2023-11-28T23:13:14.301Z,100.00
2023-11-28T23:15:40.671Z,100.00
2023-11-28T23:18:07.149Z,100.00
2023-11-28T23:20:33.528Z,100.00
2023-11-28T23:22:59.951Z,100.00
2023-11-28T23:25:27.612Z,100.00
2023-11-28T23:27:54.075Z,100.00
2023-11-28T23:30:20.482Z,100.00
2023-11-28T23:32:47.467Z,100.00
2023-11-28T23:35:14.397Z,100.00
2023-11-28T23:37:40.810Z,100.00
2023-11-28T23:40:08.360Z,100.00
2023-11-28T23:42:43.418Z,100.00
2023-11-28T23:45:13.625Z,100.00
2023-11-28T23:47:40.370Z,100.00
2023-11-28T23:50:07.344Z,100.00
2023-11-28T23:52:33.735Z,100.00
2023-11-28T23:55:00.170Z,100.00
2023-11-28T23:57:26.546Z,100.00
2023-11-28T23:59:52.958Z,100.00
